Poringland, United Kingdom
Current Conditions -  °F | °C
As of 8:20 AM on Tuesday 21 Oct 2014 (Local Time) from EGSH Reporting Station
Scattered Clouds Scattered Clouds  
Wind Chill: 57°   Ceiling: Unl
Heat Index: 57°   Visibility: 6mi
Dew Point: 54°   Wind: 17mph
Humidity: 88%   Direction: 210°SSW
Pressure: 29.41"   Gusts: 32mph
Location:  52.57°N, 1.35°E
Report Text: EGSH 210720Z 21015G28KT 170V250 9999 FEW012 SCT025 14/12 Q0996 TEMPO SHRA
Loading
Personal Weather Stations






























Interactive Weather Map
Tropical Storm Tracking
New forecast layout! Learn more

10-Day Weather Forecast

Advertisements
Track Severe Weather on mobile